Time;durP1;ratioP1;P1;durP2;ratioP2;P2;SDS_P1;SDS_P2;PMS_P1;PMS_P2;Temp;Humidity;BMP_temperature;BMP_pressure;BME280_temperature;BME280_humidity;BME280_pressure;Samples;Min_cycle;Max_cycle;Signal;HPM_P1;HPM_P2
2023/01/11 00:02:05;;;;;;;;;;;;;;;;;;5000442;28;19909;-77
2023/01/11 00:04:51;;;;;;;;;;;;;;;;;;5001351;28;20425;-78
2023/01/11 00:07:39;;;;;;;;;;;;;;;;;;4996413;28;19918;-79
2023/01/11 00:10:28;;;;;;;;;;;;;;;;;;5004760;28;19920;-76
2023/01/11 00:13:14;;;;;;;;;;;;;;;;;;5010897;28;19917;-79
2023/01/11 00:16:01;;;;;;;;;;;;;;;;;;5014317;28;19928;-82
2023/01/11 00:18:47;;;;;;;;;;;;;;;;;;5020656;28;19921;-78
2023/01/11 00:21:34;;;;;;;;;;;;;;;;;;5014442;28;19914;-77
2023/01/11 00:24:20;;;;;;;;;;;;;;;;;;5014756;28;19913;-76
2023/01/11 00:27:06;;;;;;;;;;;;;;;;;;5014427;28;19913;-76
2023/01/11 00:29:53;;;;;;;;;;;;;;;;;;5005772;28;19913;-79
2023/01/11 00:32:40;;;;;;;;;;;;;;;;;;5008997;28;20440;-78
2023/01/11 00:35:26;;;;;;;;;;;;;;;;;;5005387;28;20280;-78
2023/01/11 00:38:42;;;;;;;;;;;;;;;;;;4994630;28;19914;-75
2023/01/11 00:50:36;;;;;;;;;;;;;;;;;;5009320;28;19913;-77
2023/01/11 00:53:22;;;;;;;;;;;;;;;;;;5004574;28;20385;-79
2023/01/11 00:56:09;;;;;;;;;;;;;;;;;;5005467;28;19992;-80
2023/01/11 00:58:55;;;;;;;;;;;;;;;;;;5005366;28;19932;-76
2023/01/11 01:01:42;;;;;;;;;;;;;;;;;;4998075;28;19913;-76
2023/01/11 01:04:28;;;;;;;;;;;;;;;;;;5007955;28;19921;-78
2023/01/11 01:07:15;;;;;;;;;;;;;;;;;;5005960;28;19916;-76
2023/01/11 01:10:02;;;;;;;;;;;;;;;;;;5006828;28;19941;-77
2023/01/11 01:15:54;;;;;;;;;;;;;;;;;;5000311;28;19932;-77
2023/01/11 01:18:40;;;;;;;;;;;;;;;;;;4989676;28;20381;-78
2023/01/11 01:21:27;;;;;;;;;;;;;;;;;;4999233;28;20296;-77
2023/01/11 01:24:13;;;;;;;;;;;;;;;;;;5002757;28;19917;-76
2023/01/11 01:27:00;;;;;;;;;;;;;;;;;;5003527;28;20734;-75
2023/01/11 01:29:46;;;;;;;;;;;;;;;;;;5008188;28;19920;-75
2023/01/11 01:32:33;;;;;;;;;;;;;;;;;;5003332;28;19913;-76
2023/01/11 01:35:19;;;;;;;;;;;;;;;;;;4999019;28;19928;-76
2023/01/11 01:38:06;;;;;;;;;;;;;;;;;;5002856;28;19916;-76
2023/01/11 01:40:52;;;;;;;;;;;;;;;;;;4996676;28;19920;-77
2023/01/11 01:43:39;;;;;;;;;;;;;;;;;;5000650;28;19924;-76
2023/01/11 01:46:25;;;;;;;;;;;;;;;;;;5000544;28;19916;-77
2023/01/11 01:49:12;;;;;;;;;;;;;;;;;;4999186;28;19918;-77
2023/01/11 01:51:58;;;;;;;;;;;;;;;;;;5004240;28;19918;-77
2023/01/11 01:54:45;;;;;;;;;;;;;;;;;;5010819;28;19941;-76
2023/01/11 01:57:31;;;;;;;;;;;;;;;;;;4998741;28;20384;-77
2023/01/11 02:00:18;;;;;;;;;;;;;;;;;;5008897;28;19909;-76
2023/01/11 02:03:04;;;;;;;;;;;;;;;;;;4998191;28;19913;-76
2023/01/11 02:05:51;;;;;;;;;;;;;;;;;;5003012;28;20348;-77
2023/01/11 02:08:37;;;;;;;;;;;;;;;;;;5003375;28;19977;-76
2023/01/11 02:11:30;;;;;;;;;;;;;;;;;;5002120;28;19914;-77
2023/01/11 02:14:16;;;;;;;;;;;;;;;;;;5002030;28;19913;-77
2023/01/11 02:17:03;;;;;;;;;;;;;;;;;;4999705;28;19940;-75
2023/01/11 02:19:49;;;;;;;;;;;;;;;;;;5001043;28;19917;-77
2023/01/11 02:22:36;;;;;;;;;;;;;;;;;;5001889;28;19917;-75
2023/01/11 02:25:22;;;;;;;;;;;;;;;;;;5001651;28;20483;-77
2023/01/11 02:28:09;;;;;;;;;;;;;;;;;;5006726;28;19917;-77
2023/01/11 02:30:55;;;;;;;;;;;;;;;;;;5001743;28;20285;-77
2023/01/11 02:33:42;;;;;;;;;;;;;;;;;;5005705;28;19917;-77
2023/01/11 02:36:28;;;;;;;;;;;;;;;;;;5001443;28;19925;-78
2023/01/11 02:39:15;;;;;;;;;;;;;;;;;;5002080;28;19916;-78
2023/01/11 02:45:07;;;;;;;;;;;;;;;;;;5004344;28;19917;-77
2023/01/11 02:47:53;;;;;;;;;;;;;;;;;;5001951;28;20395;-78
2023/01/11 02:50:41;;;;;;;;;;;;;;;;;;5011738;28;19913;-78
2023/01/11 02:53:28;;;;;;;;;;;;;;;;;;5002211;28;19929;-76
2023/01/11 02:56:14;;;;;;;;;;;;;;;;;;4990028;28;20385;-77
2023/01/11 02:59:01;;;;;;;;;;;;;;;;;;5002703;28;19909;-77
2023/01/11 03:01:47;;;;;;;;;;;;;;;;;;4997458;28;19914;-80
2023/01/11 03:04:34;;;;;;;;;;;;;;;;;;5008860;28;19913;-78
2023/01/11 03:07:21;;;;;;;;;;;;;;;;;;5000923;28;20379;-78
2023/01/11 03:10:07;;;;;;;;;;;;;;;;;;4999656;28;20391;-77
2023/01/11 03:12:54;;;;;;;;;;;;;;;;;;5005211;28;19920;-77
2023/01/11 03:15:40;;;;;;;;;;;;;;;;;;5002389;28;20361;-78
2023/01/11 03:18:27;;;;;;;;;;;;;;;;;;5002785;28;19909;-78
2023/01/11 03:21:13;;;;;;;;;;;;;;;;;;5010451;28;19910;-79
2023/01/11 03:24:00;;;;;;;;;;;;;;;;;;5001822;28;20057;-78
2023/01/11 03:26:46;;;;;;;;;;;;;;;;;;5007740;28;19910;-79
2023/01/11 03:29:33;;;;;;;;;;;;;;;;;;5020912;28;19936;-81
2023/01/11 03:32:19;;;;;;;;;;;;;;;;;;5012289;28;19918;-77
2023/01/11 03:35:06;;;;;;;;;;;;;;;;;;5006291;28;20513;-77
2023/01/11 03:37:52;;;;;;;;;;;;;;;;;;5005999;28;19920;-77
2023/01/11 03:40:39;;;;;;;;;;;;;;;;;;5012725;28;19939;-77
2023/01/11 03:43:25;;;;;;;;;;;;;;;;;;5011965;28;19914;-78
2023/01/11 03:46:12;;;;;;;;;;;;;;;;;;5006596;28;19918;-76
2023/01/11 03:48:58;;;;;;;;;;;;;;;;;;5006994;28;19913;-77
2023/01/11 03:51:45;;;;;;;;;;;;;;;;;;5013070;28;20717;-75
2023/01/11 03:54:31;;;;;;;;;;;;;;;;;;5005305;28;20015;-77
2023/01/11 03:57:18;;;;;;;;;;;;;;;;;;5005991;28;19932;-78
2023/01/11 04:00:04;;;;;;;;;;;;;;;;;;5009453;28;19924;-77
2023/01/11 04:02:52;;;;;;;;;;;;;;;;;;5006849;28;19937;-77
2023/01/11 04:05:39;;;;;;;;;;;;;;;;;;5009473;28;20304;-77
2023/01/11 04:08:25;;;;;;;;;;;;;;;;;;5009024;28;20454;-77
2023/01/11 04:11:12;;;;;;;;;;;;;;;;;;5002527;28;19913;-78
2023/01/11 04:14:00;;;;;;;;;;;;;;;;;;5012307;28;19917;-77
2023/01/11 04:16:46;;;;;;;;;;;;;;;;;;5009386;28;19927;-78
2023/01/11 04:19:33;;;;;;;;;;;;;;;;;;5000602;28;19920;-76
2023/01/11 04:22:19;;;;;;;;;;;;;;;;;;5004228;28;19920;-77
2023/01/11 04:25:07;;;;;;;;;;;;;;;;;;5014582;28;19913;-76
2023/01/11 04:27:54;;;;;;;;;;;;;;;;;;5006671;28;19928;-79
2023/01/11 04:30:40;;;;;;;;;;;;;;;;;;5003116;28;19951;-78
2023/01/11 04:33:27;;;;;;;;;;;;;;;;;;5004411;28;19910;-77
2023/01/11 04:36:13;;;;;;;;;;;;;;;;;;5008849;28;20382;-76
2023/01/11 04:39:00;;;;;;;;;;;;;;;;;;5012849;28;19917;-77
2023/01/11 04:44:51;;;;;;;;;;;;;;;;;;5003913;28;19921;-77
2023/01/11 04:47:38;;;;;;;;;;;;;;;;;;5007412;28;19920;-77
2023/01/11 04:50:24;;;;;;;;;;;;;;;;;;5005592;28;19913;-77
2023/01/11 04:53:11;;;;;;;;;;;;;;;;;;5000046;28;19937;-78
2023/01/11 04:55:57;;;;;;;;;;;;;;;;;;5015148;28;19955;-77
2023/01/11 04:58:43;;;;;;;;;;;;;;;;;;5012340;28;20005;-78
2023/01/11 05:01:30;;;;;;;;;;;;;;;;;;5004308;28;19916;-78
2023/01/11 05:04:16;;;;;;;;;;;;;;;;;;5001620;28;19969;-78
2023/01/11 05:07:03;;;;;;;;;;;;;;;;;;4991254;28;19913;-77
2023/01/11 05:09:49;;;;;;;;;;;;;;;;;;5005746;28;19917;-77
2023/01/11 05:12:36;;;;;;;;;;;;;;;;;;5009329;28;20497;-77
2023/01/11 05:15:22;;;;;;;;;;;;;;;;;;5005564;28;19949;-77
2023/01/11 05:18:09;;;;;;;;;;;;;;;;;;4997275;28;19929;-78
2023/01/11 05:20:55;;;;;;;;;;;;;;;;;;5002977;28;19913;-77
2023/01/11 05:23:42;;;;;;;;;;;;;;;;;;5010566;28;20206;-78
2023/01/11 05:26:28;;;;;;;;;;;;;;;;;;5004406;28;19913;-78
2023/01/11 05:29:15;;;;;;;;;;;;;;;;;;5001565;28;19914;-77
2023/01/11 05:32:01;;;;;;;;;;;;;;;;;;5012163;28;20481;-77
2023/01/11 05:34:48;;;;;;;;;;;;;;;;;;5008946;28;19913;-76
2023/01/11 05:37:34;;;;;;;;;;;;;;;;;;5003745;28;19932;-78
2023/01/11 05:40:21;;;;;;;;;;;;;;;;;;5006169;28;20389;-77
2023/01/11 05:43:07;;;;;;;;;;;;;;;;;;5013105;28;19921;-77
2023/01/11 05:45:54;;;;;;;;;;;;;;;;;;4988867;28;19914;-78
2023/01/11 05:48:40;;;;;;;;;;;;;;;;;;5003900;28;19936;-77
2023/01/11 05:51:29;;;;;;;;;;;;;;;;;;5006291;28;19927;-76
2023/01/11 05:54:15;;;;;;;;;;;;;;;;;;5006186;28;19921;-76
2023/01/11 05:57:02;;;;;;;;;;;;;;;;;;5003652;28;19925;-76
2023/01/11 05:59:48;;;;;;;;;;;;;;;;;;5003280;28;19944;-76
2023/01/11 06:02:35;;;;;;;;;;;;;;;;;;5000092;28;19916;-79
2023/01/11 06:05:21;;;;;;;;;;;;;;;;;;5008129;28;19913;-77
2023/01/11 06:08:08;;;;;;;;;;;;;;;;;;5005308;28;20389;-77
2023/01/11 06:10:54;;;;;;;;;;;;;;;;;;5006261;28;19909;-78
2023/01/11 06:13:41;;;;;;;;;;;;;;;;;;5005082;28;19924;-77
2023/01/11 06:16:27;;;;;;;;;;;;;;;;;;5003049;28;20787;-77
2023/01/11 06:19:14;;;;;;;;;;;;;;;;;;5008661;28;19933;-77
2023/01/11 06:22:00;;;;;;;;;;;;;;;;;;5002161;28;19931;-79
2023/01/11 06:24:47;;;;;;;;;;;;;;;;;;5014526;28;19920;-76
2023/01/11 06:27:33;;;;;;;;;;;;;;;;;;5002934;28;19920;-77
2023/01/11 06:30:20;;;;;;;;;;;;;;;;;;5009683;28;19917;-76
2023/01/11 06:33:06;;;;;;;;;;;;;;;;;;5004263;28;20425;-78
2023/01/11 06:35:53;;;;;;;;;;;;;;;;;;5002433;28;19929;-78
2023/01/11 06:38:39;;;;;;;;;;;;;;;;;;5002221;28;19919;-78
2023/01/11 06:41:27;;;;;;;;;;;;;;;;;;5008794;28;20346;-79
2023/01/11 06:44:14;;;;;;;;;;;;;;;;;;5020971;28;19924;-78
2023/01/11 06:47:10;;;;;;;;;;;;;;;;;;5012171;28;19918;-78
2023/01/11 06:49:57;;;;;;;;;;;;;;;;;;5009746;28;19913;-77
2023/01/11 06:52:43;;;;;;;;;;;;;;;;;;5018933;28;19925;-77
2023/01/11 06:55:30;;;;;;;;;;;;;;;;;;5018559;28;19925;-76
2023/01/11 06:58:17;;;;;;;;;;;;;;;;;;5008358;28;19922;-77
2023/01/11 07:01:03;;;;;;;;;;;;;;;;;;4992614;28;20280;-77
2023/01/11 07:03:50;;;;;;;;;;;;;;;;;;5005435;28;20369;-77
2023/01/11 07:06:36;;;;;;;;;;;;;;;;;;5001241;28;19913;-77
2023/01/11 07:09:23;;;;;;;;;;;;;;;;;;5003241;28;19969;-77
2023/01/11 07:12:09;;;;;;;;;;;;;;;;;;5002323;28;19913;-77
2023/01/11 07:14:56;;;;;;;;;;;;;;;;;;5007350;28;19932;-78
2023/01/11 07:17:42;;;;;;;;;;;;;;;;;;5010479;28;19921;-78
2023/01/11 07:20:29;;;;;;;;;;;;;;;;;;5012188;28;19918;-85
2023/01/11 07:23:15;;;;;;;;;;;;;;;;;;5005176;28;19926;-85
2023/01/11 07:26:02;;;;;;;;;;;;;;;;;;5012138;28;19924;-85
2023/01/11 07:28:48;;;;;;;;;;;;;;;;;;5009974;28;19924;-86
2023/01/11 07:31:34;;;;;;;;;;;;;;;;;;5007310;28;19918;-85
2023/01/11 07:34:21;;;;;;;;;;;;;;;;;;5010668;28;19921;-84
2023/01/11 07:37:08;;;;;;;;;;;;;;;;;;5009258;28;20686;-84
2023/01/11 07:39:54;;;;;;;;;;;;;;;;;;4993244;28;20377;-83
2023/01/11 07:45:47;;;;;;;;;;;;;;;;;;5021520;28;19909;-85
2023/01/11 07:48:34;;;;;;;;;;;;;;;;;;5017631;28;19914;-85
2023/01/11 07:51:23;;;;;;;;;;;;;;;;;;5013162;28;19921;-85
2023/01/11 07:54:09;;;;;;;;;;;;;;;;;;5007972;28;19925;-86
2023/01/11 07:56:55;;;;;;;;;;;;;;;;;;5012021;28;19927;-84
2023/01/11 07:59:42;;;;;;;;;;;;;;;;;;5012505;28;19963;-84
2023/01/11 08:02:28;;;;;;;;;;;;;;;;;;5012750;28;19913;-84
2023/01/11 08:05:15;;;;;;;;;;;;;;;;;;5013231;28;19920;-83
2023/01/11 08:08:01;;;;;;;;;;;;;;;;;;5008786;28;19908;-84
2023/01/11 08:14:38;;;;;;;;;;;;;;;;;;5011797;28;19917;-84
2023/01/11 08:17:02;;;;;;;;;;;;;;;;;;5011966;28;19928;-85
2023/01/11 08:19:49;;;;;;;;;;;;;;;;;;5002187;28;19924;-85
2023/01/11 08:22:35;;;;;;;;;;;;;;;;;;5009980;28;19914;-84
2023/01/11 08:25:22;;;;;;;;;;;;;;;;;;5015730;28;19917;-84
2023/01/11 08:28:08;;;;;;;;;;;;;;;;;;4999253;28;20593;-84
2023/01/11 08:30:55;;;;;;;;;;;;;;;;;;5010355;28;19917;-84
2023/01/11 08:33:41;;;;;;;;;;;;;;;;;;5011097;28;19910;-85
2023/01/11 08:36:34;;;;;;;;;;;;;;;;;;5012055;28;19921;-84
2023/01/11 08:39:20;;;;;;;;;;;;;;;;;;5007318;28;19918;-85
2023/01/11 08:42:11;;;;;;;;;;;;;;;;;;5017334;28;19969;-85
2023/01/11 08:44:58;;;;;;;;;;;;;;;;;;4994387;28;19918;-85
2023/01/11 08:47:45;;;;;;;;;;;;;;;;;;5006748;28;19936;-84
2023/01/11 08:50:32;;;;;;;;;;;;;;;;;;5006925;28;19948;-85
2023/01/11 08:53:19;;;;;;;;;;;;;;;;;;5007134;28;20235;-86
2023/01/11 08:56:06;;;;;;;;;;;;;;;;;;5009732;28;20396;-85
2023/01/11 08:58:52;;;;;;;;;;;;;;;;;;5008934;28;19913;-87
2023/01/11 09:01:39;;;;;;;;;;;;;;;;;;5007039;28;19920;-85
2023/01/11 09:04:25;;;;;;;;;;;;;;;;;;5007115;28;19968;-84
2023/01/11 09:07:12;;;;;;;;;;;;;;;;;;5006521;28;19913;-84
2023/01/11 09:09:58;;;;;;;;;;;;;;;;;;5009649;28;19915;-84
2023/01/11 09:12:45;;;;;;;;;;;;;;;;;;5008523;28;19932;-84
2023/01/11 09:15:31;;;;;;;;;;;;;;;;;;5002166;28;19918;-84
2023/01/11 09:18:18;;;;;;;;;;;;;;;;;;5005422;28;19925;-82
2023/01/11 09:21:05;;;;;;;;;;;;;;;;;;5009055;28;19918;-83
2023/01/11 09:23:51;;;;;;;;;;;;;;;;;;5002522;28;20050;-84
2023/01/11 09:26:40;;;;;;;;;;;;;;;;;;4990792;28;19917;-82
2023/01/11 09:29:26;;;;;;;;;;;;;;;;;;5007850;28;19927;-83
2023/01/11 09:32:13;;;;;;;;;;;;;;;;;;5000710;28;19921;-83
2023/01/11 09:35:00;;;;;;;;;;;;;;;;;;5002842;28;19928;-83
2023/01/11 09:37:48;;;;;;;;;;;;;;;;;;5002614;28;19921;-83
2023/01/11 09:40:37;;;;;;;;;;;;;;;;;;5005003;28;20288;-84
2023/01/11 09:43:25;;;;;;;;;;;;;;;;;;5009527;28;19933;-83
2023/01/11 09:46:11;;;;;;;;;;;;;;;;;;5008757;28;20373;-85
2023/01/11 09:48:58;;;;;;;;;;;;;;;;;;5002424;28;19913;-84
2023/01/11 09:51:45;;;;;;;;;;;;;;;;;;5005965;28;19917;-82
2023/01/11 09:54:32;;;;;;;;;;;;;;;;;;5006875;28;19926;-82
2023/01/11 09:57:19;;;;;;;;;;;;;;;;;;5008225;28;19947;-82
2023/01/11 10:00:08;;;;;;;;;;;;;;;;;;5011583;28;19916;-83
2023/01/11 10:02:58;;;;;;;;;;;;;;;;;;5028328;28;19909;-82
2023/01/11 10:05:48;;;;;;;;;;;;;;;;;;5029059;28;19914;-82
2023/01/11 10:08:39;;;;;;;;;;;;;;;;;;5022538;28;20392;-83
2023/01/11 10:11:27;;;;;;;;;;;;;;;;;;5009072;28;20313;-83
2023/01/11 10:14:13;;;;;;;;;;;;;;;;;;5008104;28;19918;-84
2023/01/11 10:17:00;;;;;;;;;;;;;;;;;;5009174;28;19932;-83
2023/01/11 10:19:48;;;;;;;;;;;;;;;;;;5007901;28;19917;-84
2023/01/11 10:22:35;;;;;;;;;;;;;;;;;;5006899;28;19913;-84
2023/01/11 10:25:29;;;;;;;;;;;;;;;;;;5005658;28;20007;-83
2023/01/11 10:28:18;;;;;;;;;;;;;;;;;;5016455;28;19924;-82
2023/01/11 10:31:28;;;;;;;;;;;;;;;;;;5007249;28;19925;-83
2023/01/11 10:34:31;;;;;;;;;;;;;;;;;;5007788;28;19918;-83
2023/01/11 10:43:16;;;;;;;;;;;;;;;;;;5002959;28;19924;-83
2023/01/11 10:46:04;;;;;;;;;;;;;;;;;;5008058;28;19943;-83
2023/01/11 10:48:50;;;;;;;;;;;;;;;;;;4993537;28;20004;-82
2023/01/11 10:51:38;;;;;;;;;;;;;;;;;;5009591;28;19914;-83
2023/01/11 10:54:26;;;;;;;;;;;;;;;;;;5004691;28;19931;-82
2023/01/11 10:57:12;;;;;;;;;;;;;;;;;;5012246;28;20399;-83
2023/01/11 10:59:59;;;;;;;;;;;;;;;;;;5005298;28;19923;-82
2023/01/11 11:02:48;;;;;;;;;;;;;;;;;;5002838;28;20440;-82
2023/01/11 11:05:34;;;;;;;;;;;;;;;;;;5004130;28;20644;-84
2023/01/11 11:08:25;;;;;;;;;;;;;;;;;;4987434;28;19917;-82
2023/01/11 11:11:11;;;;;;;;;;;;;;;;;;5004352;28;19918;-83
2023/01/11 11:13:58;;;;;;;;;;;;;;;;;;4989498;28;20675;-83
2023/01/11 11:16:44;;;;;;;;;;;;;;;;;;4998752;28;19931;-83
2023/01/11 11:19:31;;;;;;;;;;;;;;;;;;4990068;28;19923;-83
2023/01/11 11:22:19;;;;;;;;;;;;;;;;;;5000385;28;19914;-82
2023/01/11 11:25:06;;;;;;;;;;;;;;;;;;4999738;28;20361;-83
2023/01/11 11:27:52;;;;;;;;;;;;;;;;;;5004330;28;19917;-82
2023/01/11 11:30:39;;;;;;;;;;;;;;;;;;5001234;28;19924;-82
2023/01/11 11:33:25;;;;;;;;;;;;;;;;;;4999187;28;20526;-83
2023/01/11 11:36:12;;;;;;;;;;;;;;;;;;5006247;28;19925;-83
2023/01/11 11:38:58;;;;;;;;;;;;;;;;;;5001486;28;19917;-82
2023/01/11 11:41:45;;;;;;;;;;;;;;;;;;5003833;28;19924;-82
2023/01/11 11:44:32;;;;;;;;;;;;;;;;;;5004308;28;19917;-84
2023/01/11 11:47:18;;;;;;;;;;;;;;;;;;5004785;28;20560;-83
2023/01/11 11:50:05;;;;;;;;;;;;;;;;;;5008504;28;20652;-83
2023/01/11 11:52:51;;;;;;;;;;;;;;;;;;5005403;28;19932;-82
2023/01/11 11:55:37;;;;;;;;;;;;;;;;;;5005839;28;20381;-83
2023/01/11 11:58:24;;;;;;;;;;;;;;;;;;4991204;28;19924;-84
2023/01/11 12:01:11;;;;;;;;;;;;;;;;;;5008006;28;19953;-82
2023/01/11 12:03:57;;;;;;;;;;;;;;;;;;5002496;28;19920;-83
2023/01/11 12:06:44;;;;;;;;;;;;;;;;;;5011679;28;19917;-82
2023/01/11 12:09:30;;;;;;;;;;;;;;;;;;5010617;28;20636;-82
2023/01/11 12:12:17;;;;;;;;;;;;;;;;;;5016010;28;20293;-83
2023/01/11 12:15:03;;;;;;;;;;;;;;;;;;5007589;28;19920;-83
2023/01/11 12:17:50;;;;;;;;;;;;;;;;;;5011526;28;20293;-82
2023/01/11 12:20:36;;;;;;;;;;;;;;;;;;5013709;28;19940;-83
2023/01/11 12:23:23;;;;;;;;;;;;;;;;;;5002569;28;19913;-83
2023/01/11 12:26:09;;;;;;;;;;;;;;;;;;5007427;28;20322;-83
2023/01/11 12:28:56;;;;;;;;;;;;;;;;;;5003662;28;19952;-83
2023/01/11 12:31:42;;;;;;;;;;;;;;;;;;5002998;28;19922;-82
2023/01/11 12:34:29;;;;;;;;;;;;;;;;;;5002019;28;19918;-82
2023/01/11 12:37:15;;;;;;;;;;;;;;;;;;5006869;28;19928;-83
2023/01/11 12:40:02;;;;;;;;;;;;;;;;;;5004496;28;20830;-83
2023/01/11 12:42:48;;;;;;;;;;;;;;;;;;5006982;28;19913;-84
2023/01/11 12:45:34;;;;;;;;;;;;;;;;;;5007682;28;19913;-86
2023/01/11 12:48:22;;;;;;;;;;;;;;;;;;5004166;28;19918;-82
2023/01/11 12:51:08;;;;;;;;;;;;;;;;;;5005674;28;19917;-83
2023/01/11 12:53:54;;;;;;;;;;;;;;;;;;5006309;28;19921;-83
2023/01/11 12:56:41;;;;;;;;;;;;;;;;;;5001087;28;20396;-83
2023/01/11 12:59:27;;;;;;;;;;;;;;;;;;5001586;28;20833;-81
2023/01/11 13:02:14;;;;;;;;;;;;;;;;;;5005673;28;19936;-82
2023/01/11 13:05:01;;;;;;;;;;;;;;;;;;5004935;28;19937;-83
2023/01/11 13:07:47;;;;;;;;;;;;;;;;;;5005538;28;20468;-83
2023/01/11 13:10:33;;;;;;;;;;;;;;;;;;5013957;28;19921;-83
2023/01/11 13:13:20;;;;;;;;;;;;;;;;;;5032047;28;19974;-83
2023/01/11 13:16:06;;;;;;;;;;;;;;;;;;5037557;28;19929;-83
2023/01/11 13:18:56;;;;;;;;;;;;;;;;;;5024701;28;19917;-82
2023/01/11 13:21:43;;;;;;;;;;;;;;;;;;5013824;28;19917;-83
2023/01/11 13:24:29;;;;;;;;;;;;;;;;;;5010440;28;19914;-84
2023/01/11 13:27:16;;;;;;;;;;;;;;;;;;5006645;28;19917;-82
2023/01/11 13:30:03;;;;;;;;;;;;;;;;;;5009568;28;19963;-84
2023/01/11 13:32:49;;;;;;;;;;;;;;;;;;5007018;28;19924;-84
2023/01/11 13:35:35;;;;;;;;;;;;;;;;;;5007764;28;19925;-82
2023/01/11 13:38:22;;;;;;;;;;;;;;;;;;4993740;28;19929;-85
2023/01/11 13:41:08;;;;;;;;;;;;;;;;;;5007252;28;19920;-83
2023/01/11 13:43:55;;;;;;;;;;;;;;;;;;5004338;28;20281;-86
2023/01/11 13:46:41;;;;;;;;;;;;;;;;;;5001545;28;19920;-84
2023/01/11 13:49:28;;;;;;;;;;;;;;;;;;5009088;28;19913;-85
2023/01/11 13:52:14;;;;;;;;;;;;;;;;;;5010227;28;19913;-85
2023/01/11 13:55:01;;;;;;;;;;;;;;;;;;5007403;28;19948;-84
2023/01/11 13:57:47;;;;;;;;;;;;;;;;;;5010655;28;20430;-84
2023/01/11 14:00:34;;;;;;;;;;;;;;;;;;5003057;28;19916;-85
2023/01/11 14:03:20;;;;;;;;;;;;;;;;;;4994106;28;19914;-85
2023/01/11 14:06:07;;;;;;;;;;;;;;;;;;5005117;28;19914;-90
2023/01/11 14:08:53;;;;;;;;;;;;;;;;;;5008656;28;19913;-82
2023/01/11 14:11:40;;;;;;;;;;;;;;;;;;4990893;28;19932;-81
2023/01/11 14:14:26;;;;;;;;;;;;;;;;;;5004366;28;19943;-83
2023/01/11 14:17:13;;;;;;;;;;;;;;;;;;5011150;28;20300;-83
2023/01/11 14:19:59;;;;;;;;;;;;;;;;;;5007189;28;19909;-82
2023/01/11 14:22:46;;;;;;;;;;;;;;;;;;5000591;28;19913;-84
2023/01/11 14:25:32;;;;;;;;;;;;;;;;;;5009610;28;19914;-84
2023/01/11 14:28:19;;;;;;;;;;;;;;;;;;5002859;28;19919;-83
2023/01/11 14:31:05;;;;;;;;;;;;;;;;;;5001603;28;20025;-83
2023/01/11 14:33:52;;;;;;;;;;;;;;;;;;5016144;28;19913;-83
2023/01/11 14:36:38;;;;;;;;;;;;;;;;;;5006791;28;19931;-84
2023/01/11 14:39:24;;;;;;;;;;;;;;;;;;5011173;28;19909;-82
2023/01/11 14:42:11;;;;;;;;;;;;;;;;;;5001632;28;19924;-84
2023/01/11 14:44:58;;;;;;;;;;;;;;;;;;4997591;28;19919;-83
2023/01/11 14:47:44;;;;;;;;;;;;;;;;;;5012111;28;20376;-87
2023/01/11 14:50:31;;;;;;;;;;;;;;;;;;5002332;28;20112;-87
2023/01/11 14:53:17;;;;;;;;;;;;;;;;;;5003964;28;19933;-86
2023/01/11 14:56:03;;;;;;;;;;;;;;;;;;5009762;28;19917;-85
2023/01/11 14:58:50;;;;;;;;;;;;;;;;;;5000679;28;19943;-86
2023/01/11 15:01:36;;;;;;;;;;;;;;;;;;5012568;28;19920;-85
2023/01/11 15:04:23;;;;;;;;;;;;;;;;;;4999591;28;20285;-86
2023/01/11 15:07:09;;;;;;;;;;;;;;;;;;5011050;28;19920;-85
2023/01/11 15:09:56;;;;;;;;;;;;;;;;;;5001178;28;19917;-89
2023/01/11 15:12:43;;;;;;;;;;;;;;;;;;4997828;28;19918;-86
2023/01/11 15:18:16;;;;;;;;;;;;;;;;;;5009319;28;19919;-84
2023/01/11 15:18:36;;;;;;;;;;;;;;;;;;5009804;28;20296;-85
2023/01/11 15:21:22;;;;;;;;;;;;;;;;;;5009146;28;19948;-84
2023/01/11 15:24:08;;;;;;;;;;;;;;;;;;5011325;28;19935;-83
2023/01/11 15:26:55;;;;;;;;;;;;;;;;;;4989441;28;19922;-86
2023/01/11 15:29:42;;;;;;;;;;;;;;;;;;5005813;28;20354;-84
2023/01/11 15:32:28;;;;;;;;;;;;;;;;;;4999090;28;19917;-84
2023/01/11 15:35:15;;;;;;;;;;;;;;;;;;5002216;28;19919;-84
2023/01/11 15:38:01;;;;;;;;;;;;;;;;;;5010726;28;19936;-87
2023/01/11 15:40:49;;;;;;;;;;;;;;;;;;5008335;28;20358;-86
2023/01/11 15:43:35;;;;;;;;;;;;;;;;;;5005581;28;20306;-82
2023/01/11 15:49:27;;;;;;;;;;;;;;;;;;5009591;28;19920;-86
2023/01/11 15:52:13;;;;;;;;;;;;;;;;;;5004743;28;19917;-85
2023/01/11 15:55:00;;;;;;;;;;;;;;;;;;5010021;28;19921;-82
2023/01/11 15:57:46;;;;;;;;;;;;;;;;;;5017642;28;19922;-82
2023/01/11 16:00:33;;;;;;;;;;;;;;;;;;5016642;28;20463;-84
2023/01/11 16:03:19;;;;;;;;;;;;;;;;;;5009376;28;19924;-85
2023/01/11 16:06:06;;;;;;;;;;;;;;;;;;5006773;28;19944;-86
2023/01/11 16:08:53;;;;;;;;;;;;;;;;;;5012834;28;19924;-83
2023/01/11 16:11:39;;;;;;;;;;;;;;;;;;5006680;28;19913;-83
2023/01/11 16:14:26;;;;;;;;;;;;;;;;;;4992255;28;19919;-83
2023/01/11 16:17:12;;;;;;;;;;;;;;;;;;5012725;28;20289;-82
2023/01/11 16:19:59;;;;;;;;;;;;;;;;;;5011815;28;20297;-87
2023/01/11 16:22:45;;;;;;;;;;;;;;;;;;5032028;28;19944;-83
2023/01/11 16:25:32;;;;;;;;;;;;;;;;;;5046032;28;19901;-84
2023/01/11 16:28:18;;;;;;;;;;;;;;;;;;5012135;28;19914;-82
2023/01/11 16:31:05;;;;;;;;;;;;;;;;;;5016467;28;19913;-85
2023/01/11 16:33:52;;;;;;;;;;;;;;;;;;5007117;28;20333;-85
2023/01/11 16:36:40;;;;;;;;;;;;;;;;;;5007239;28;19921;-83
2023/01/11 16:39:26;;;;;;;;;;;;;;;;;;5006199;28;19923;-83
2023/01/11 16:42:13;;;;;;;;;;;;;;;;;;5013872;28;19921;-84
2023/01/11 16:45:00;;;;;;;;;;;;;;;;;;5005115;28;20601;-84
2023/01/11 16:47:46;;;;;;;;;;;;;;;;;;5009442;28;19910;-85
2023/01/11 16:50:33;;;;;;;;;;;;;;;;;;4994714;28;20005;-84
2023/01/11 16:53:19;;;;;;;;;;;;;;;;;;5002600;28;19925;-85
2023/01/11 16:56:05;;;;;;;;;;;;;;;;;;4990852;28;19942;-86
2023/01/11 16:58:52;;;;;;;;;;;;;;;;;;5003349;28;20408;-86
2023/01/11 17:01:38;;;;;;;;;;;;;;;;;;5015436;28;19913;-85
2023/01/11 17:04:25;;;;;;;;;;;;;;;;;;5010060;28;19913;-86
2023/01/11 17:07:11;;;;;;;;;;;;;;;;;;5014098;28;19910;-85
2023/01/11 17:09:58;;;;;;;;;;;;;;;;;;5006524;28;19921;-86
2023/01/11 17:12:44;;;;;;;;;;;;;;;;;;5005219;28;19925;-87
2023/01/11 17:15:31;;;;;;;;;;;;;;;;;;5006892;28;19925;-86
2023/01/11 17:18:17;;;;;;;;;;;;;;;;;;5006793;28;20304;-85
2023/01/11 17:21:04;;;;;;;;;;;;;;;;;;5003515;28;19921;-90
2023/01/11 17:23:50;;;;;;;;;;;;;;;;;;5007973;28;19921;-86
2023/01/11 17:26:37;;;;;;;;;;;;;;;;;;5003645;28;19917;-85
2023/01/11 17:29:23;;;;;;;;;;;;;;;;;;5006200;28;19928;-84
2023/01/11 17:32:09;;;;;;;;;;;;;;;;;;5010936;28;20300;-86
2023/01/11 17:34:56;;;;;;;;;;;;;;;;;;5014514;28;19933;-85
2023/01/11 17:37:42;;;;;;;;;;;;;;;;;;5008321;28;19947;-86
2023/01/11 17:40:29;;;;;;;;;;;;;;;;;;5007638;28;20369;-83
2023/01/11 17:46:23;;;;;;;;;;;;;;;;;;5008439;28;19920;-87
2023/01/11 17:49:10;;;;;;;;;;;;;;;;;;5007928;28;19914;-84
2023/01/11 17:51:56;;;;;;;;;;;;;;;;;;5005769;28;19941;-84
2023/01/11 17:54:43;;;;;;;;;;;;;;;;;;5009039;28;19932;-87
2023/01/11 17:57:29;;;;;;;;;;;;;;;;;;5006885;28;19917;-83
2023/01/11 18:00:17;;;;;;;;;;;;;;;;;;5008864;28;19917;-86
2023/01/11 18:03:03;;;;;;;;;;;;;;;;;;5004297;28;19921;-85
2023/01/11 18:05:50;;;;;;;;;;;;;;;;;;5006063;28;20501;-85
2023/01/11 18:08:36;;;;;;;;;;;;;;;;;;5017657;28;19913;-88
2023/01/11 18:11:23;;;;;;;;;;;;;;;;;;5008051;28;20211;-85
2023/01/11 18:14:09;;;;;;;;;;;;;;;;;;5010266;28;19924;-88
2023/01/11 18:16:56;;;;;;;;;;;;;;;;;;5009735;28;19924;-87
2023/01/11 18:19:42;;;;;;;;;;;;;;;;;;4993050;28;20839;-86
2023/01/11 18:22:29;;;;;;;;;;;;;;;;;;5005813;28;19918;-87
2023/01/11 18:25:15;;;;;;;;;;;;;;;;;;5006932;28;20020;-85
2023/01/11 18:28:02;;;;;;;;;;;;;;;;;;5006388;28;19917;-86
2023/01/11 18:30:52;;;;;;;;;;;;;;;;;;5007652;28;19919;-86
2023/01/11 18:33:40;;;;;;;;;;;;;;;;;;5001413;28;19913;-88
2023/01/11 18:36:28;;;;;;;;;;;;;;;;;;5009811;28;19913;-85
2023/01/11 18:39:15;;;;;;;;;;;;;;;;;;5007079;28;20000;-86
2023/01/11 18:42:07;;;;;;;;;;;;;;;;;;5008249;28;19919;-88
2023/01/11 18:44:53;;;;;;;;;;;;;;;;;;5003342;28;19925;-86
2023/01/11 18:47:40;;;;;;;;;;;;;;;;;;5011744;28;19909;-86
2023/01/11 18:50:26;;;;;;;;;;;;;;;;;;5007261;28;19917;-85
2023/01/11 18:53:13;;;;;;;;;;;;;;;;;;5003084;28;19952;-85
2023/01/11 18:55:59;;;;;;;;;;;;;;;;;;4997243;28;19921;-83
2023/01/11 18:58:46;;;;;;;;;;;;;;;;;;5000900;28;19921;-84
2023/01/11 19:01:32;;;;;;;;;;;;;;;;;;5008948;28;19917;-84
2023/01/11 19:04:19;;;;;;;;;;;;;;;;;;5004174;28;19913;-88
2023/01/11 19:07:05;;;;;;;;;;;;;;;;;;5002073;28;19987;-85
2023/01/11 19:09:53;;;;;;;;;;;;;;;;;;5009197;28;19929;-85
2023/01/11 19:12:41;;;;;;;;;;;;;;;;;;4999047;28;19914;-85
2023/01/11 19:15:27;;;;;;;;;;;;;;;;;;5013899;28;19920;-83
2023/01/11 19:18:15;;;;;;;;;;;;;;;;;;5003890;28;19925;-83
2023/01/11 19:21:01;;;;;;;;;;;;;;;;;;4999384;28;19913;-83
2023/01/11 19:23:49;;;;;;;;;;;;;;;;;;5008276;28;19968;-82
2023/01/11 19:26:36;;;;;;;;;;;;;;;;;;4987827;28;19932;-78
2023/01/11 19:29:23;;;;;;;;;;;;;;;;;;5015172;28;19913;-79
2023/01/11 19:32:10;;;;;;;;;;;;;;;;;;5014320;28;19927;-79
2023/01/11 19:35:00;;;;;;;;;;;;;;;;;;5014921;28;19916;-80
2023/01/11 19:37:46;;;;;;;;;;;;;;;;;;5019540;28;19940;-82